Latest Weather Observations for Merimbula

IDN60801

Issued at 2:02 pm EST Wednesday 24 May 2017 (issued every 30 minutes, with the page automatically refreshed every 10 minutes)

About weather observations | Map of weather stations | Latest weather observations for NSW | Other Formats
Station Details ID: 069147 Name: MERIMBULA AIRPORT AWS Lat: -36.91 Lon: 149.90 Height: 1.5 m
Data from the previous 72 hours. | See also: Recent months at Merimbula
Date/Time
EST
Temp
°C
App
Temp
°C
Dew
Point
°C
Rel
Hum
%
Delta-T
°C
Wind Press
QNH
hPa
Press
MSL
hPa
Rain since
9am
mm
Dir  Spd
km/h
Gust
km/h
Spd
kts
Gust
kts
24/02:00pm 18.8 16.3 9.8 56 4.8 SSE 13 19 7 10 1011.0 1011.0 0.0
24/01:30pm 18.2 15.1 10.3 60 4.2 SSW 17 24 9 13 1011.0 1011.0 0.0
24/01:00pm 16.5 13.0 10.1 66 3.4 S 19 26 10 14 1010.8 1010.8 0.0
24/12:30pm 21.1 19.1 10.0 49 6.0 W 11 22 6 12 1010.8 1010.8 0.0
24/12:00pm 19.9 17.9 8.6 48 5.9 WSW 9 19 5 10 1011.0 1011.0 0.0
24/11:30am 20.5 18.0 9.7 50 5.8 WSW 13 22 7 12 1011.3 1011.3 0.0
24/11:00am 19.7 16.7 9.3 51 5.5 W 15 26 8 14 1011.6 1011.6 0.0
24/10:30am 18.6 15.3 9.4 55 4.8 WSW 17 26 9 14 1011.5 1011.5 0.0
24/10:00am 17.5 14.2 9.7 60 4.1 W 17 24 9 13 1011.7 1011.7 0.0
24/09:30am 16.3 14.0 10.6 69 3.0 WSW 13 19 7 10 1011.6 1011.6 0.0
24/09:00am 13.8 13.6 11.7 87 1.1 NW 4 11 2 6 1011.6 1011.6 -
24/08:30am 12.8 11.8 10.9 88 1.0 WNW 7 13 4 7 1011.9 1011.9 -
24/08:00am 12.1 10.5 10.3 89 0.9 WSW 9 17 5 9 1011.8 1011.8 -
24/07:30am 11.8 10.3 10.5 92 0.7 SW 9 11 5 6 1012.0 1012.0 -
24/07:00am 12.0 10.1 10.6 91 0.7 WNW 11 17 6 9 1012.0 1012.0 -
24/06:30am 12.3 10.5 10.9 91 0.7 NW 11 13 6 7 1012.2 1012.2 -
24/06:00am 12.3 12.6 10.9 91 0.7 CALM 0 0 0 0 1012.0 1012.0 -
24/05:30am 12.7 10.9 10.8 88 1.0 W 11 17 6 9 1012.8 1012.8 -
24/05:00am 12.9 9.4 11.0 88 1.0 W 20 30 11 16 1012.3 1012.3 -
24/04:30am 10.7 10.7 9.8 94 0.5 CALM 0 0 0 0 1012.8 1012.8 -
24/04:00am 10.6 8.9 9.8 95 0.4 WSW 9 17 5 9 1012.3 1012.3 -
24/03:57am 10.6 8.5 9.8 95 0.4 SW 11 17 6 9 1012.2 1012.2 -
24/03:41am 10.9 9.6 10.1 95 0.4 WNW 7 9 4 5 1012.1 1012.1 -
24/03:30am 10.5 8.8 9.7 95 0.4 SW 9 11 5 6 1011.9 1011.9 -
24/03:00am 10.4 9.2 9.6 95 0.4 NNW 6 11 3 6 1012.1 1012.1 0.2
24/02:30am 10.0 8.7 9.2 95 0.4 SSW 6 7 3 4 1012.0 1012.0 -
24/02:00am 9.9 8.5 9.0 94 0.4 WSW 6 11 3 6 1012.4 1012.4 -
24/01:30am 10.4 8.6 9.6 95 0.4 NNW 9 13 5 7 1012.6 1012.6 -
24/01:00am 10.6 8.9 10.0 96 0.3 NW 9 13 5 7 1012.8 1012.8 -
24/12:30am 10.9 9.0 10.4 97 0.3 NW 11 13 6 7 1013.3 1013.3 -
24/12:00am 10.6 9.0 10.1 97 0.3 NW 9 13 5 7 1013.8 1013.8 -
 
Date/Time
EST
Temp
°C
App
Temp
°C
Dew
Point
°C
Rel
Hum
%
Delta-T
°C
Wind Press
QNH
hPa
Press
MSL
hPa
Rain since
9am
mm
Dir  Spd
km/h
Gust
km/h
Spd
kts
Gust
kts
23/11:30pm 10.5 9.2 10.0 97 0.3 W 7 13 4 7 1014.1 1014.1 -
23/11:13pm 10.1 8.3 9.5 96 0.3 NW 9 15 5 8 1014.3 1014.3 -
23/11:00pm 8.8 7.2 8.0 95 0.4 WSW 6 7 3 4 1014.5 1014.5 -
23/10:54pm 8.7 7.1 7.9 95 0.4 WSW 6 7 3 4 1014.6 1014.6 -
23/10:30pm 9.1 7.6 8.3 95 0.4 SSW 6 7 3 4 1014.8 1014.8 -
23/10:00pm 9.4 9.1 8.6 95 0.4 CALM 0 0 0 0 1014.8 1014.8 -
23/09:38pm 9.6 9.4 9.0 96 0.3 CALM 0 0 0 0 1015.0 1015.0 -
23/09:30pm 9.8 9.6 9.0 95 0.4 CALM 0 0 0 0 1015.1 1015.1 -
23/09:11pm 9.6 9.3 8.8 95 0.4 CALM 0 0 0 0 1015.1 1015.1 -
23/09:00pm 10.0 9.8 9.2 95 0.4 CALM 0 0 0 0 1015.1 1015.1 0.0
23/08:30pm 9.7 9.4 8.8 94 0.4 CALM 0 0 0 0 1015.2 1015.2 -
23/08:00pm 9.5 9.1 8.4 93 0.5 CALM 0 0 0 0 1015.3 1015.3 -
23/07:30pm 10.3 10.1 9.1 92 0.6 CALM 0 0 0 0 1015.1 1015.1 -
23/07:00pm 10.5 10.3 9.1 91 0.7 CALM 0 0 0 0 1015.2 1015.2 -
23/06:30pm 11.0 10.9 9.4 90 0.8 CALM 0 0 0 0 1015.3 1015.3 -
23/06:00pm 11.5 10.7 9.6 88 1.0 WNW 4 11 2 6 1015.4 1015.4 -
23/05:30pm 12.4 12.5 10.0 85 1.2 CALM 0 0 0 0 1015.2 1015.2 -
23/05:00pm 13.9 13.8 10.7 81 1.7 NW 2 13 1 7 1015.3 1015.3 -
23/04:30pm 16.3 16.7 11.2 72 2.7 CALM 0 0 0 0 1015.1 1015.1 -
23/04:00pm 18.1 18.6 11.7 66 3.5 CALM 0 0 0 0 1015.2 1015.2 -
23/03:30pm 17.9 18.2 10.8 63 3.8 CALM 0 0 0 0 1015.2 1015.2 -
23/03:00pm 18.2 17.2 11.0 63 3.9 E 7 11 4 6 1015.3 1015.3 -
23/02:30pm 18.4 17.3 11.9 66 3.6 E 9 13 5 7 1015.4 1015.4 -
23/02:00pm 18.7 17.6 11.8 64 3.8 E 9 13 5 7 1015.6 1015.6 -
23/01:30pm 18.2 17.0 11.5 65 3.7 E 9 13 5 7 1015.9 1015.9 -
23/01:00pm 18.6 17.3 11.2 62 4.0 E 9 15 5 8 1016.1 1016.1 -
23/12:30pm 17.7 17.5 10.6 63 3.8 NE 2 7 1 4 1016.9 1016.9 -
23/12:00pm 18.2 17.5 11.3 64 3.7 ENE 6 9 3 5 1017.2 1017.2 -
23/11:30am 17.5 16.4 10.6 64 3.7 E 7 11 4 6 1017.8 1017.8 -
23/11:00am 16.4 15.6 11.1 71 2.8 E 6 11 3 6 1018.6 1018.6 -
23/03:30am 7.2 6.4 6.6 96 0.3 CALM 0 0 0 0 1019.1 1019.1 0.0
23/03:00am 7.5 6.8 7.1 97 0.2 CALM 0 0 0 0 1019.4 1019.4 0.0
23/02:30am 7.7 7.0 7.1 96 0.3 CALM 0 0 0 0 1019.7 1019.7 0.0
23/02:00am 8.3 7.8 7.7 96 0.3 CALM 0 0 0 0 1020.0 1020.0 0.0
23/01:30am 8.2 7.6 7.6 96 0.3 CALM 0 0 0 0 1020.4 1020.4 0.0
23/01:00am 8.2 7.6 7.6 96 0.3 CALM 0 0 0 0 1020.8 1020.8 0.0
23/12:30am 8.2 7.6 7.6 96 0.3 CALM 0 0 0 0 1021.1 1021.1 0.0
23/12:00am 8.7 8.3 8.1 96 0.3 CALM 0 0 0 0 1021.3 1021.3 0.0
 
Date/Time
EST
Temp
°C
App
Temp
°C
Dew
Point
°C
Rel
Hum
%
Delta-T
°C
Wind Press
QNH
hPa
Press
MSL
hPa
Rain since
9am
mm
Dir  Spd
km/h
Gust
km/h
Spd
kts
Gust
kts
22/11:30pm 8.8 8.4 8.2 96 0.3 CALM 0 0 0 0 1021.5 1021.5 0.0
22/11:00pm 8.7 8.2 7.9 95 0.4 CALM 0 0 0 0 1021.6 1021.6 0.0
22/10:30pm 8.5 7.9 7.6 94 0.4 CALM 0 0 0 0 1021.9 1021.9 0.0
22/10:00pm 9.5 9.2 8.7 95 0.4 CALM 0 0 0 0 1022.1 1022.1 0.0
22/09:30pm 9.3 8.9 8.4 94 0.4 CALM 0 0 0 0 1021.9 1021.9 0.0
22/09:00pm 10.3 10.2 9.5 95 0.4 CALM 0 0 0 0 1021.9 1021.9 0.0
22/08:30pm 9.9 9.6 8.8 93 0.5 CALM 0 0 0 0 1021.8 1021.8 0.0
22/08:00pm 10.6 10.5 9.5 93 0.5 CALM 0 0 0 0 1021.7 1021.7 0.0
22/07:30pm 10.8 10.7 9.6 92 0.6 CALM 0 0 0 0 1021.6 1021.6 0.0
22/07:00pm 11.2 11.1 9.5 89 0.9 CALM 0 0 0 0 1021.6 1021.6 0.0
22/06:30pm 12.8 13.1 10.9 88 1.0 CALM 0 0 0 0 1021.5 1021.5 0.0
22/06:00pm 14.0 13.2 11.0 82 1.6 NW 6 9 3 5 1021.2 1021.2 0.0
22/05:30pm 15.4 14.6 11.8 79 1.9 N 7 13 4 7 1021.0 1021.0 0.0
22/05:00pm 16.1 15.3 11.7 75 2.4 N 7 13 4 7 1020.9 1020.9 0.0
22/04:30pm 17.0 15.8 11.7 71 2.9 NE 9 13 5 7 1020.9 1020.9 0.0
22/04:00pm 17.8 16.3 12.0 69 3.2 NNE 11 17 6 9 1020.9 1020.9 0.0
22/03:30pm 18.7 17.8 12.5 67 3.5 NE 9 17 5 9 1021.1 1021.1 0.0
22/03:00pm 19.0 17.8 12.7 67 3.5 NE 11 17 6 9 1021.1 1021.1 0.0
22/02:30pm 18.6 16.6 12.8 69 3.3 NE 15 20 8 11 1021.1 1021.1 0.0
22/02:00pm 18.9 16.9 12.6 67 3.5 NE 15 20 8 11 1021.2 1021.2 0.0
22/01:30pm 19.8 18.6 12.8 64 3.9 NE 11 17 6 9 1021.4 1021.4 0.0
22/01:00pm 19.4 17.3 12.4 64 3.9 ENE 15 19 8 10 1021.7 1021.7 0.0
22/12:30pm 19.5 18.4 12.0 62 4.2 E 9 13 5 7 1022.1 1022.1 0.0
22/12:00pm 19.5 18.8 13.2 67 3.6 E 9 13 5 7 1022.5 1022.5 0.0
22/11:30am 18.7 19.5 12.7 68 3.4 CALM 0 0 0 0 1023.0 1023.0 0.0
22/11:00am 17.9 17.8 13.2 74 2.6 ESE 6 9 3 5 1023.2 1023.2 0.0
22/10:30am 17.9 18.7 12.4 70 3.0 CALM 0 0 0 0 1023.6 1023.6 0.0
22/10:00am 17.1 17.7 12.0 72 2.8 CALM 0 0 0 0 1023.8 1023.8 0.0
22/09:30am 14.6 15.0 12.5 87 1.1 NW 2 7 1 4 1024.1 1024.1 0.0
22/09:00am 12.8 11.9 12.5 98 0.2 NW 9 11 5 6 1024.2 1024.2 -
22/08:30am 11.2 11.5 11.0 99 0.1 CALM 0 0 0 0 1024.2 1024.2 -
22/08:00am 9.0 8.7 8.6 97 0.2 CALM 0 0 0 0 1024.0 1024.0 -
22/07:47am 7.9 7.3 7.5 97 0.2 CALM 0 0 0 0 1023.9 1023.9 -
22/07:30am 6.9 6.1 6.5 97 0.2 CALM 0 0 0 0 1023.8 1023.8 -
22/07:00am 6.8 5.9 6.2 96 0.3 CALM 0 0 0 0 1023.4 1023.4 -
22/06:36am 6.9 6.1 6.3 96 0.3 CALM 0 6 0 3 1023.2 1023.2 -
22/06:31am 7.0 5.5 6.6 97 0.2 SSW 4 7 2 4 1023.1 1023.1 -
22/06:30am 7.1 5.6 6.7 97 0.2 SSW 4 9 2 5 1023.1 1023.1 -
22/06:00am 7.0 5.0 6.4 96 0.3 SW 6 7 3 4 1022.8 1022.8 -
22/05:35am 7.0 4.8 6.4 96 0.3 SW 7 7 4 4 1022.7 1022.7 -
22/05:30am 7.3 5.2 6.7 96 0.3 SW 7 7 4 4 1022.6 1022.6 -
22/05:00am 7.9 5.6 7.5 97 0.2 SSW 9 9 5 5 1022.4 1022.4 -
22/04:30am 8.1 6.2 7.7 97 0.2 SW 7 9 4 5 1022.4 1022.4 -
22/04:00am 8.1 6.2 7.7 97 0.2 SW 7 9 4 5 1022.4 1022.4 -
22/03:42am 8.2 6.0 7.8 97 0.2 SW 9 11 5 6 1022.3 1022.3 -
22/03:30am 8.1 6.2 7.5 96 0.3 SW 7 9 4 5 1022.3 1022.3 -
22/03:01am 8.1 6.4 7.7 97 0.2 SW 6 7 3 4 1022.3 1022.3 -
22/03:00am 8.1 6.4 7.7 97 0.2 SW 6 7 3 4 1022.3 1022.3 0.0
22/02:30am 8.3 6.7 7.9 97 0.2 SW 6 7 3 4 1022.4 1022.4 -
22/02:28am 8.3 6.7 7.9 97 0.2 SW 6 7 3 4 1022.4 1022.4 -
22/02:16am 8.5 6.7 7.9 96 0.3 SW 7 9 4 5 1022.4 1022.4 -
22/02:00am 8.1 7.5 7.5 96 0.3 CALM 0 4 0 2 1022.4 1022.4 -
22/01:34am 8.4 6.6 7.8 96 0.3 SW 7 9 4 5 1022.5 1022.5 -
22/01:30am 8.5 6.7 7.9 96 0.3 SW 7 9 4 5 1022.5 1022.5 -
22/01:26am 8.7 6.9 8.1 96 0.3 SW 7 9 4 5 1022.5 1022.5 -
22/01:00am 8.7 7.5 8.1 96 0.3 WSW 4 6 2 3 1022.5 1022.5 -
22/12:58am 8.8 7.6 8.2 96 0.3 SW 4 7 2 4 1022.6 1022.6 -
22/12:57am 8.9 7.4 8.3 96 0.3 SW 6 7 3 4 1022.6 1022.6 -
22/12:30am 8.9 7.4 8.3 96 0.3 WSW 6 9 3 5 1022.6 1022.6 -
22/12:00am 9.1 8.0 8.3 95 0.4 WSW 4 7 2 4 1022.8 1022.8 -
 
Date/Time
EST
Temp
°C
App
Temp
°C
Dew
Point
°C
Rel
Hum
%
Delta-T
°C
Wind Press
QNH
hPa
Press
MSL
hPa
Rain since
9am
mm
Dir  Spd
km/h
Gust
km/h
Spd
kts
Gust
kts
21/11:30pm 9.4 7.9 8.6 95 0.4 SW 6 7 3 4 1022.8 1022.8 -
21/11:19pm 9.2 7.7 8.4 95 0.4 WSW 6 7 3 4 1022.8 1022.8 -
21/11:00pm 9.7 8.2 9.1 96 0.3 SW 7 9 4 5 1022.7 1022.7 -
21/10:30pm 9.7 9.5 9.1 96 0.3 CALM 0 0 0 0 1022.6 1022.6 -
21/10:26pm 9.7 9.5 9.1 96 0.3 CALM 0 0 0 0 1022.6 1022.6 -
21/10:00pm 9.5 9.2 8.7 95 0.4 CALM 0 0 0 0 1022.5 1022.5 -
21/09:30pm 9.8 9.6 8.9 94 0.4 CALM 0 0 0 0 1022.5 1022.5 -
21/09:14pm 10.5 10.5 9.7 95 0.4 CALM 0 0 0 0 1022.5 1022.5 -
21/09:00pm 10.3 10.2 9.5 95 0.4 CALM 0 0 0 0 1022.5 1022.5 0.0
21/08:30pm 10.7 10.7 9.8 94 0.5 CALM 0 0 0 0 1022.3 1022.3 -
21/08:25pm 10.8 10.8 9.9 94 0.5 CALM 0 0 0 0 1022.2 1022.2 -
21/08:10pm 10.9 11.0 10.0 94 0.5 CALM 0 0 0 0 1022.1 1022.1 -
21/08:00pm 11.3 11.4 10.2 93 0.6 CALM 0 0 0 0 1022.0 1022.0 -
21/07:53pm 11.2 11.3 10.1 93 0.6 CALM 0 0 0 0 1022.0 1022.0 -
21/07:31pm 11.4 11.5 10.1 92 0.7 CALM 0 0 0 0 1021.8 1021.8 -
21/07:30pm 11.3 11.4 10.0 92 0.7 CALM 0 0 0 0 1021.8 1021.8 -
21/07:00pm 12.1 12.0 10.7 91 0.7 W 2 7 1 4 1021.7 1021.7 -
21/06:30pm 12.9 12.0 11.5 91 0.7 WNW 7 9 4 5 1021.4 1021.4 -
21/06:00pm 13.3 13.0 11.4 88 1.0 WSW 4 9 2 5 1021.0 1021.0 -
21/05:30pm 14.2 14.6 11.2 82 1.6 CALM 0 0 0 0 1020.5 1020.5 -
21/05:00pm 16.3 15.9 12.5 78 2.1 NNE 6 9 3 5 1020.1 1020.1 -
21/04:30pm 17.2 16.2 12.3 73 2.7 NE 9 15 5 8 1019.8 1019.8 -
21/04:00pm 18.3 17.3 12.3 68 3.3 NE 9 13 5 7 1019.8 1019.8 -
21/03:30pm 18.7 17.3 12.2 66 3.6 ENE 11 15 6 8 1019.5 1019.5 -
21/03:00pm 18.6 16.7 11.9 65 3.7 NE 13 20 7 11 1019.3 1019.3 -
21/02:30pm 19.4 17.6 12.2 63 4.0 ENE 13 20 7 11 1019.2 1019.2 -

Other Formats:

Comma delimited format used in spreadsheet applications
http://www.bom.gov.au/fwo/IDN60801/IDN60801.95929.axf

JavaScript Object Notation format (JSON) in row-major order
http://www.bom.gov.au/fwo/IDN60801/IDN60801.95929.json